Chelsea, Michigan
Current Conditions -  °F | °C
As of 3:53 PM on Sunday 23 Nov 2014 (Local Time) from KARB Reporting Station
Overcast Overcast  
Wind Chill: 53°   Ceiling: 6500
Heat Index: 53°   Visibility: 10mi
Dew Point: 45°   Wind: 7mph
Humidity: 74%   Direction: 120°ESE
Pressure: 29.68"   Gusts: NA
Location:  42.32°N, 84.02°W
Report Text: KARB 232053Z 12006KT 10SM OVC065 12/07 A2968 RMK AO2 SLP052 T01170072 56029
Loading
Personal Weather Stations






























Interactive Weather Map New forecast layout! Learn more

10-Day Weather Forecast

Advertisements
Track Severe Weather on mobile